createdAt,value
2018-01-15T00:00:58.057Z,28.53
2018-01-15T00:03:25.792Z,29.67
2018-01-15T00:05:53.463Z,31.03
2018-01-15T00:08:21.159Z,30.13
2018-01-15T00:10:49.737Z,35.77
2018-01-15T00:13:17.397Z,31.13
2018-01-15T00:15:45.061Z,28.10
2018-01-15T00:18:13.641Z,25.80
2018-01-15T00:20:41.544Z,28.77
2018-01-15T00:23:09.205Z,27.23
2018-01-15T00:25:37.302Z,28.93
2018-01-15T00:28:05.705Z,29.60
2018-01-15T00:30:33.382Z,30.07
2018-01-15T00:33:01.119Z,30.63
2018-01-15T00:35:28.781Z,28.87
2018-01-15T00:37:56.441Z,34.10
2018-01-15T00:40:24.138Z,32.60
2018-01-15T00:42:51.791Z,27.97
2018-01-15T00:45:19.441Z,34.90
2018-01-15T00:47:47.556Z,25.70
2018-01-15T00:50:16.096Z,28.70
2018-01-15T00:52:43.770Z,28.90
2018-01-15T00:55:11.509Z,27.13
2018-01-15T00:57:39.317Z,25.10
2018-01-15T01:00:06.970Z,26.27
2018-01-15T01:02:34.681Z,22.33
2018-01-15T01:05:02.790Z,25.50
2018-01-15T01:10:10.098Z,30.30
2018-01-15T01:12:37.759Z,24.27
2018-01-15T01:15:05.411Z,31.50
2018-01-15T01:17:33.136Z,27.30
2018-01-15T01:20:00.802Z,25.33
2018-01-15T01:22:28.471Z,28.00
2018-01-15T01:24:56.612Z,25.43
2018-01-15T01:27:25.049Z,26.97
2018-01-15T01:29:52.742Z,23.63
2018-01-15T01:32:21.745Z,23.30
2018-01-15T01:34:49.822Z,23.53
2018-01-15T01:37:17.512Z,26.77
2018-01-15T01:39:45.240Z,25.43
2018-01-15T01:42:12.926Z,26.53
2018-01-15T01:44:41.077Z,26.47
2018-01-15T01:47:08.796Z,31.00
2018-01-15T01:49:36.466Z,27.73
2018-01-15T01:52:04.138Z,25.37
2018-01-15T01:54:31.852Z,24.30
2018-01-15T01:56:59.510Z,25.80
2018-01-15T01:59:27.173Z,24.33
2018-01-15T02:01:54.894Z,30.83
2018-01-15T02:04:23.080Z,24.50
2018-01-15T02:06:50.743Z,30.47
2018-01-15T02:09:18.458Z,26.80
2018-01-15T02:11:46.095Z,24.17
2018-01-15T02:14:14.536Z,21.50
2018-01-15T02:16:42.264Z,21.90
2018-01-15T02:19:10.482Z,21.83
2018-01-15T02:21:42.242Z,21.67
2018-01-15T02:24:10.400Z,25.73
2018-01-15T02:26:38.579Z,27.73
2018-01-15T02:31:46.704Z,26.73
2018-01-15T02:34:14.369Z,25.43
2018-01-15T02:36:42.479Z,26.07
2018-01-15T02:39:11.010Z,30.73
2018-01-15T02:41:39.856Z,24.63
2018-01-15T02:44:08.495Z,23.50
2018-01-15T02:46:38.132Z,29.10
2018-01-15T02:49:05.796Z,25.80
2018-01-15T02:51:33.470Z,25.30
2018-01-15T02:54:01.216Z,26.30
2018-01-15T02:56:29.377Z,26.43
2018-01-15T02:58:57.043Z,21.87
2018-01-15T03:01:24.767Z,25.37
2018-01-15T03:03:52.415Z,23.50
2018-01-15T03:06:20.067Z,24.90
2018-01-15T03:08:48.166Z,24.73
2018-01-15T03:11:16.343Z,29.53
2018-01-15T03:13:43.996Z,24.37
2018-01-15T03:16:11.714Z,22.27
2018-01-15T03:18:39.379Z,28.00
2018-01-15T03:21:07.912Z,27.43
2018-01-15T03:23:35.612Z,26.77
2018-01-15T03:26:03.272Z,25.40
2018-01-15T03:28:30.935Z,28.83
2018-01-15T03:30:58.712Z,24.73
2018-01-15T03:33:26.394Z,30.17
2018-01-15T03:38:30.674Z,29.37
2018-01-15T03:40:58.331Z,22.30
2018-01-15T03:43:25.993Z,22.03
2018-01-15T03:45:53.706Z,26.30
2018-01-15T03:48:21.367Z,23.10
2018-01-15T03:50:49.157Z,23.97
2018-01-15T03:53:17.520Z,22.70
2018-01-15T03:55:45.173Z,22.37
2018-01-15T03:58:12.836Z,22.93
2018-01-15T04:00:40.567Z,24.33
2018-01-15T04:03:09.044Z,20.33
2018-01-15T04:05:36.698Z,22.87
2018-01-15T04:08:04.428Z,24.40
2018-01-15T04:10:32.070Z,22.63
2018-01-15T04:13:00.241Z,23.10
2018-01-15T04:15:27.957Z,30.37
2018-01-15T04:17:56.072Z,23.77
2018-01-15T04:20:23.764Z,21.43
2018-01-15T04:22:51.461Z,26.37
2018-01-15T04:25:19.112Z,22.17
2018-01-15T04:27:46.775Z,24.40
2018-01-15T04:30:18.575Z,24.07
2018-01-15T04:32:46.229Z,24.63
2018-01-15T04:35:14.190Z,21.77
2018-01-15T04:37:41.908Z,20.20
2018-01-15T04:42:51.996Z,25.00
2018-01-15T04:45:19.668Z,25.77
2018-01-15T04:47:47.702Z,24.33
2018-01-15T04:50:15.425Z,20.27
2018-01-15T04:52:43.081Z,24.07
2018-01-15T04:55:10.738Z,23.30
2018-01-15T04:57:38.459Z,21.27
2018-01-15T05:00:06.100Z,23.73
2018-01-15T05:02:33.764Z,20.20
2018-01-15T05:05:01.475Z,15.87
2018-01-15T05:07:32.779Z,17.63
2018-01-15T05:10:02.448Z,19.77
2018-01-15T05:12:30.095Z,22.43
2018-01-15T05:14:57.756Z,23.60
2018-01-15T05:17:26.408Z,20.47
2018-01-15T05:19:54.069Z,22.43
2018-01-15T05:22:23.117Z,19.73
2018-01-15T05:24:50.843Z,23.60
2018-01-15T05:27:18.580Z,24.50
2018-01-15T05:29:46.143Z,24.60
2018-01-15T05:32:13.859Z,23.30
2018-01-15T05:34:41.982Z,24.60
2018-01-15T05:37:09.631Z,23.03
2018-01-15T05:39:37.851Z,22.93
2018-01-15T05:42:05.531Z,21.77
2018-01-15T05:44:33.226Z,27.67
2018-01-15T05:47:00.933Z,24.63
2018-01-15T05:49:28.602Z,27.40
2018-01-15T05:51:56.276Z,25.47
2018-01-15T05:54:23.990Z,30.10
2018-01-15T05:56:52.178Z,25.90
2018-01-15T05:59:19.822Z,26.23
2018-01-15T06:01:47.518Z,21.50
2018-01-15T06:04:16.209Z,22.57
2018-01-15T06:09:26.051Z,30.27
2018-01-15T06:11:53.759Z,33.27
2018-01-15T06:14:21.429Z,32.30
2018-01-15T06:16:49.530Z,23.40
2018-01-15T06:19:17.268Z,21.87
2018-01-15T06:21:45.394Z,22.47
2018-01-15T06:24:13.052Z,23.70
2018-01-15T06:26:40.784Z,31.10
2018-01-15T06:29:08.977Z,23.17
2018-01-15T06:31:36.646Z,23.47
2018-01-15T06:34:04.358Z,24.10
2018-01-15T06:36:32.006Z,22.47
2018-01-15T06:38:59.652Z,21.70
2018-01-15T06:41:27.796Z,24.10
2018-01-15T06:43:55.491Z,20.13
2018-01-15T06:46:23.128Z,23.87
2018-01-15T06:48:51.346Z,26.63
2018-01-15T06:51:19.006Z,21.93
2018-01-15T06:53:49.108Z,27.63
2018-01-15T06:56:16.833Z,21.70
2018-01-15T06:58:44.524Z,23.27
2018-01-15T07:01:12.449Z,20.97
2018-01-15T07:03:40.124Z,19.83
2018-01-15T07:06:07.794Z,28.03
2018-01-15T07:08:36.545Z,23.43
2018-01-15T07:11:05.211Z,25.07
2018-01-15T07:13:32.870Z,28.30
2018-01-15T07:16:00.540Z,23.10
2018-01-15T07:18:33.378Z,19.73
2018-01-15T07:20:55.889Z,21.93
2018-01-15T07:23:23.563Z,19.53
2018-01-15T07:28:31.758Z,21.05
2018-01-15T07:30:59.454Z,20.73
2018-01-15T07:33:27.406Z,20.93
2018-01-15T07:35:59.788Z,24.83
2018-01-15T07:38:24.797Z,26.13
2018-01-15T07:40:52.453Z,29.07
2018-01-15T07:43:20.402Z,68.60
2018-01-15T07:45:48.120Z,62.23
2018-01-15T07:48:15.788Z,25.40
2018-01-15T07:50:43.426Z,27.07
2018-01-15T07:53:11.127Z,25.13
2018-01-15T07:55:38.771Z,24.90
2018-01-15T07:58:06.442Z,26.30
2018-01-15T08:00:34.132Z,16.93
2018-01-15T08:03:01.821Z,13.73
2018-01-15T08:05:29.472Z,12.93
2018-01-15T08:07:57.620Z,11.60
2018-01-15T08:10:25.280Z,12.03
2018-01-15T08:12:53.447Z,10.67
2018-01-15T08:15:21.169Z,13.93
2018-01-15T08:17:48.839Z,12.33
2018-01-15T08:20:17.746Z,11.07
2018-01-15T08:22:45.957Z,16.33
2018-01-15T08:25:13.644Z,16.67
2018-01-15T08:27:41.571Z,14.50
2018-01-15T08:30:09.333Z,14.50
2018-01-15T08:32:36.992Z,14.37
2018-01-15T08:35:04.659Z,13.93
2018-01-15T08:37:32.369Z,10.30
2018-01-15T08:42:41.154Z,15.55
2018-01-15T08:45:08.791Z,13.30
2018-01-15T08:47:36.433Z,12.83
2018-01-15T08:50:04.130Z,13.93
2018-01-15T08:52:31.769Z,13.80
2018-01-15T08:54:59.455Z,13.10
2018-01-15T08:57:27.103Z,12.53
2018-01-15T08:59:54.748Z,13.30
2018-01-15T09:02:23.386Z,16.10
2018-01-15T09:04:51.066Z,9.60
2018-01-15T09:07:18.686Z,12.10
2018-01-15T09:09:46.357Z,7.37
2018-01-15T09:12:14.045Z,9.60
2018-01-15T09:14:41.687Z,5.20
2018-01-15T09:17:09.340Z,7.90
2018-01-15T09:22:14.239Z,12.30
2018-01-15T09:27:21.731Z,12.20
2018-01-15T09:29:50.851Z,10.63
2018-01-15T09:32:22.704Z,13.13
2018-01-15T09:34:58.238Z,11.30
2018-01-15T09:40:03.698Z,8.87
2018-01-15T09:42:36.571Z,6.83
2018-01-15T09:45:08.341Z,5.13
2018-01-15T09:47:39.261Z,5.47
2018-01-15T09:50:11.123Z,5.23
2018-01-15T09:52:41.767Z,8.97
2018-01-15T09:57:47.112Z,7.30
2018-01-15T10:00:18.966Z,6.50
2018-01-15T10:05:25.157Z,8.27
2018-01-15T10:13:13.045Z,7.28
2018-01-15T10:15:46.710Z,3.43
2018-01-15T10:18:17.457Z,4.57
2018-01-15T10:20:49.306Z,3.17
2018-01-15T10:23:20.065Z,4.93
2018-01-15T10:25:51.806Z,4.23
2018-01-15T10:30:56.121Z,3.00
2018-01-15T10:33:26.907Z,3.87
2018-01-15T10:38:31.956Z,3.43
2018-01-15T10:43:32.210Z,6.40
2018-01-15T10:45:59.904Z,9.07
2018-01-15T10:48:27.546Z,6.60
2018-01-15T10:50:55.195Z,6.00
2018-01-15T10:53:23.272Z,7.60
2018-01-15T10:55:50.903Z,4.73
2018-01-15T10:58:18.546Z,3.47
2018-01-15T11:00:52.021Z,3.33
2018-01-15T11:03:20.224Z,2.50
2018-01-15T11:05:47.856Z,3.50
2018-01-15T11:08:15.930Z,2.63
2018-01-15T11:10:43.569Z,6.00
2018-01-15T11:13:11.212Z,3.00
2018-01-15T11:15:38.909Z,6.40
2018-01-15T11:18:06.557Z,6.67
2018-01-15T11:20:34.557Z,5.27
2018-01-15T11:23:02.639Z,4.90
2018-01-15T11:25:30.281Z,1.80
2018-01-15T11:27:57.908Z,3.17
2018-01-15T11:30:25.601Z,3.63
2018-01-15T11:32:53.233Z,5.83
2018-01-15T11:35:20.876Z,3.60
2018-01-15T11:40:27.993Z,4.85
2018-01-15T11:42:55.694Z,3.60
2018-01-15T11:45:23.318Z,3.00
2018-01-15T11:47:50.944Z,4.10
2018-01-15T11:50:18.633Z,3.53
2018-01-15T11:52:46.269Z,1.77
2018-01-15T11:55:13.897Z,3.53
2018-01-15T11:57:41.589Z,3.10
2018-01-15T12:00:09.234Z,3.23
2018-01-15T12:02:36.884Z,1.90
2018-01-15T12:05:04.581Z,6.20
2018-01-15T12:07:32.207Z,2.53
2018-01-15T12:09:59.846Z,4.47
2018-01-15T12:12:27.553Z,8.30
2018-01-15T12:14:55.196Z,2.23
2018-01-15T12:17:22.848Z,2.93
2018-01-15T12:19:50.947Z,7.37
2018-01-15T12:22:18.590Z,4.03
2018-01-15T12:24:46.219Z,7.10
2018-01-15T12:27:14.315Z,3.63
2018-01-15T12:29:41.955Z,5.53
2018-01-15T12:32:10.087Z,3.90
2018-01-15T12:34:37.742Z,4.63
2018-01-15T12:37:05.371Z,1.97
2018-01-15T12:39:33.005Z,2.27
2018-01-15T12:42:00.704Z,2.70
2018-01-15T12:44:28.336Z,2.73
2018-01-15T12:46:56.798Z,1.63
2018-01-15T12:49:24.486Z,4.20
2018-01-15T12:51:52.118Z,1.77
2018-01-15T12:54:20.729Z,2.30
2018-01-15T12:56:48.439Z,3.50
2018-01-15T12:59:16.063Z,2.30
2018-01-15T13:04:22.838Z,2.62
2018-01-15T13:06:56.312Z,5.90
2018-01-15T13:09:23.978Z,3.10
2018-01-15T13:11:51.616Z,2.67
2018-01-15T13:14:19.248Z,1.03
2018-01-15T13:16:46.944Z,1.43
2018-01-15T13:19:14.581Z,2.90
2018-01-15T13:21:42.199Z,6.90
2018-01-15T13:24:09.886Z,5.27
2018-01-15T13:26:37.508Z,2.17
2018-01-15T13:29:05.149Z,3.13
2018-01-15T13:31:32.840Z,10.00
2018-01-15T13:34:00.499Z,8.33
2018-01-15T13:36:28.125Z,5.97
2018-01-15T13:38:55.807Z,2.53
2018-01-15T13:41:23.429Z,7.23
2018-01-15T13:43:51.051Z,6.50
2018-01-15T13:46:18.749Z,4.97
2018-01-15T13:48:46.366Z,6.10
2018-01-15T13:51:13.993Z,6.00
2018-01-15T13:53:41.684Z,4.07
2018-01-15T13:56:09.363Z,10.27
2018-01-15T13:58:36.979Z,8.60
2018-01-15T14:01:04.670Z,2.73
2018-01-15T14:03:33.114Z,2.73
2018-01-15T14:06:00.742Z,2.40
2018-01-15T14:08:28.439Z,1.80
2018-01-15T14:10:56.070Z,7.77
2018-01-15T14:13:24.568Z,1.80
2018-01-15T14:15:52.252Z,7.17
2018-01-15T14:18:19.886Z,6.97
2018-01-15T14:20:47.506Z,7.40
2018-01-15T14:23:15.208Z,6.57
2018-01-15T14:25:42.845Z,6.70
2018-01-15T14:28:10.514Z,6.37
2018-01-15T14:30:39.127Z,3.50
2018-01-15T14:35:47.926Z,15.68
2018-01-15T14:38:15.565Z,15.23
2018-01-15T14:40:43.196Z,9.90
2018-01-15T14:43:10.912Z,5.53
2018-01-15T14:45:39.007Z,12.73
2018-01-15T14:48:06.646Z,8.30
2018-01-15T14:50:34.338Z,8.10
2018-01-15T14:53:01.965Z,9.23
2018-01-15T14:55:30.592Z,9.17
2018-01-15T14:57:58.286Z,3.67
2018-01-15T15:00:25.922Z,7.20
2018-01-15T15:02:53.551Z,5.53
2018-01-15T15:05:22.182Z,7.30
2018-01-15T15:07:49.816Z,6.47
2018-01-15T15:10:17.465Z,11.83
2018-01-15T15:12:45.147Z,5.47
2018-01-15T15:15:12.795Z,7.13
2018-01-15T15:17:40.435Z,11.17
2018-01-15T15:20:08.523Z,5.53
2018-01-15T15:22:36.487Z,10.40
2018-01-15T15:25:04.649Z,4.83
2018-01-15T15:27:32.350Z,7.53
2018-01-15T15:29:59.990Z,8.53
2018-01-15T15:32:27.614Z,4.27
2018-01-15T15:34:56.169Z,12.03
2018-01-15T15:37:23.810Z,11.17
2018-01-15T15:39:52.202Z,3.10
2018-01-15T15:42:19.893Z,8.53
2018-01-15T15:44:48.459Z,10.83
2018-01-15T15:47:16.089Z,6.57
2018-01-15T15:49:43.774Z,9.27
2018-01-15T15:52:11.398Z,13.57
2018-01-15T15:54:39.040Z,6.90
2018-01-15T15:57:06.735Z,16.63
2018-01-15T15:59:34.381Z,6.53
2018-01-15T16:04:41.165Z,10.55
2018-01-15T16:07:08.789Z,6.93
2018-01-15T16:09:37.356Z,9.10
2018-01-15T16:12:05.066Z,4.20
2018-01-15T16:14:32.675Z,2.87
2018-01-15T16:17:00.304Z,9.93
2018-01-15T16:19:28.022Z,11.27
2018-01-15T16:22:07.409Z,5.67
2018-01-15T16:24:35.101Z,11.20
2018-01-15T16:27:03.311Z,10.17
2018-01-15T16:29:30.979Z,10.63
2018-01-15T16:31:58.659Z,9.87
2018-01-15T16:34:27.236Z,9.87
2018-01-15T16:36:54.869Z,16.13
2018-01-15T16:39:22.571Z,10.20
2018-01-15T16:41:50.201Z,10.53
2018-01-15T16:44:18.656Z,10.57
2018-01-15T16:46:47.309Z,13.87
2018-01-15T16:49:14.954Z,16.90
2018-01-15T16:51:42.598Z,15.63
2018-01-15T16:54:10.294Z,15.97
2018-01-15T16:56:37.938Z,14.13
2018-01-15T16:59:05.573Z,14.50
2018-01-15T17:01:33.286Z,8.27
2018-01-15T17:04:00.919Z,10.53
2018-01-15T17:06:28.551Z,10.43
2018-01-15T17:08:56.251Z,7.40
2018-01-15T17:11:25.321Z,7.93
2018-01-15T17:13:53.571Z,4.20
2018-01-15T17:16:21.227Z,10.30
2018-01-15T17:18:48.874Z,4.23
2018-01-15T17:21:16.518Z,7.17
2018-01-15T17:23:44.202Z,3.77
2018-01-15T17:26:12.132Z,5.60
2018-01-15T17:31:20.976Z,5.30
2018-01-15T17:33:50.656Z,2.33
2018-01-15T17:36:18.279Z,6.53
2018-01-15T17:38:46.571Z,10.40
2018-01-15T17:41:14.064Z,4.77
2018-01-15T17:43:41.714Z,5.17
2018-01-15T17:46:09.410Z,12.70
2018-01-15T17:48:37.426Z,6.63
2018-01-15T17:51:05.058Z,10.43
2018-01-15T17:53:32.775Z,12.97
2018-01-15T17:56:00.678Z,12.23
2018-01-15T17:58:28.346Z,6.40
2018-01-15T18:00:56.037Z,2.23
2018-01-15T18:03:26.062Z,11.97
2018-01-15T18:05:53.709Z,13.17
2018-01-15T18:08:21.786Z,12.70
2018-01-15T18:10:49.407Z,8.30
2018-01-15T18:13:17.055Z,4.27
2018-01-15T18:15:44.779Z,12.00
2018-01-15T18:18:13.220Z,11.03
2018-01-15T18:20:40.854Z,11.37
2018-01-15T18:23:09.054Z,12.13
2018-01-15T18:25:37.103Z,1.50
2018-01-15T18:28:04.771Z,15.27
2018-01-15T18:30:33.553Z,15.47
2018-01-15T18:33:02.222Z,14.13
2018-01-15T18:35:29.841Z,5.33
2018-01-15T18:37:57.532Z,12.70
2018-01-15T18:40:26.070Z,19.50
2018-01-15T18:42:53.740Z,13.63
2018-01-15T18:45:21.553Z,8.40
2018-01-15T18:47:49.150Z,13.37
2018-01-15T18:50:17.792Z,11.50
2018-01-15T18:52:45.526Z,3.60
2018-01-15T18:57:49.800Z,7.68
2018-01-15T19:00:17.439Z,3.03
2018-01-15T19:02:46.460Z,8.07
2018-01-15T19:05:14.406Z,4.87
2018-01-15T19:07:42.085Z,7.40
2018-01-15T19:10:09.728Z,5.07
2018-01-15T19:12:37.466Z,7.87
2018-01-15T19:15:05.111Z,8.73
2018-01-15T19:17:32.752Z,9.43
2018-01-15T19:20:03.405Z,4.43
2018-01-15T19:22:31.081Z,3.80
2018-01-15T19:24:58.722Z,5.47
2018-01-15T19:27:26.419Z,6.33
2018-01-15T19:29:54.047Z,5.73
2018-01-15T19:32:21.683Z,7.20
2018-01-15T19:34:55.099Z,6.20
2018-01-15T19:40:04.426Z,18.35
2018-01-15T19:42:32.039Z,42.03
2018-01-15T19:45:05.279Z,10.17
2018-01-15T19:47:38.468Z,10.10
2018-01-15T19:50:11.888Z,7.93
2018-01-15T19:52:45.253Z,4.87
2018-01-15T19:55:18.480Z,3.20
2018-01-15T19:57:51.723Z,7.57
2018-01-15T20:00:25.125Z,7.37
2018-01-15T20:05:45.121Z,6.25
2018-01-15T20:08:18.379Z,7.53
2018-01-15T20:13:28.656Z,7.37
2018-01-15T20:15:56.385Z,5.97
2018-01-15T20:18:24.038Z,5.20
2018-01-15T20:20:51.697Z,4.37
2018-01-15T20:23:19.401Z,7.80
2018-01-15T20:25:47.024Z,6.73
2018-01-15T20:28:14.732Z,8.20
2018-01-15T20:30:42.465Z,2.70
2018-01-15T20:33:10.115Z,6.73
2018-01-15T20:35:37.946Z,5.33
2018-01-15T20:38:05.793Z,9.17
2018-01-15T20:40:33.506Z,6.10
2018-01-15T20:43:01.155Z,4.57
2018-01-15T20:45:29.065Z,7.47
2018-01-15T20:47:56.668Z,7.63
2018-01-15T20:50:24.303Z,8.20
2018-01-15T20:52:51.985Z,9.13
2018-01-15T20:55:20.623Z,8.10
2018-01-15T20:57:51.682Z,9.07
2018-01-15T21:03:18.479Z,8.33
2018-01-15T21:05:45.065Z,6.97
2018-01-15T21:08:12.784Z,8.20
2018-01-15T21:10:40.470Z,7.87
2018-01-15T21:13:08.840Z,7.70
2018-01-15T21:15:45.772Z,5.40
2018-01-15T21:18:12.262Z,5.47
2018-01-15T21:20:39.926Z,8.00
2018-01-15T21:23:07.669Z,5.87
2018-01-15T21:25:35.307Z,4.53
2018-01-15T21:28:02.935Z,7.23
2018-01-15T21:30:30.622Z,5.57
2018-01-15T21:32:58.248Z,7.03
2018-01-15T21:35:25.914Z,8.27
2018-01-15T21:40:32.668Z,8.32
2018-01-15T21:43:00.345Z,4.93
2018-01-15T21:45:27.969Z,7.33
2018-01-15T21:47:55.604Z,8.40
2018-01-15T21:50:23.291Z,4.87
2018-01-15T21:52:50.914Z,7.43
2018-01-15T21:55:18.544Z,7.63
2018-01-15T21:57:46.218Z,7.93
2018-01-15T22:00:13.838Z,10.50
2018-01-15T22:02:41.470Z,9.27
2018-01-15T22:05:10.486Z,7.70
2018-01-15T22:07:38.095Z,6.70
2018-01-15T22:10:05.734Z,5.67
2018-01-15T22:12:33.419Z,8.00
2018-01-15T22:15:01.040Z,8.20
2018-01-15T22:17:29.031Z,9.80
2018-01-15T22:19:56.361Z,6.13
2018-01-15T22:22:23.992Z,5.53
2018-01-15T22:24:52.425Z,8.30
2018-01-15T22:27:20.095Z,6.90
2018-01-15T22:29:47.715Z,8.33
2018-01-15T22:32:15.824Z,8.70
2018-01-15T22:34:43.507Z,6.40
2018-01-15T22:37:11.141Z,6.23
2018-01-15T22:39:38.760Z,6.23
2018-01-15T22:42:06.464Z,6.30
2018-01-15T22:44:34.081Z,6.97
2018-01-15T22:47:02.155Z,6.40
2018-01-15T22:49:29.835Z,7.43
2018-01-15T22:51:57.460Z,6.87
2018-01-15T22:54:25.093Z,6.20
2018-01-15T22:56:52.774Z,6.10
2018-01-15T22:59:20.407Z,6.80
2018-01-15T23:01:48.034Z,7.20
2018-01-15T23:04:15.747Z,5.90
2018-01-15T23:09:24.183Z,7.82
2018-01-15T23:11:52.547Z,5.73
2018-01-15T23:14:20.687Z,5.40
2018-01-15T23:16:51.871Z,6.20
2018-01-15T23:19:20.689Z,6.10
2018-01-15T23:24:26.611Z,5.75
2018-01-15T23:26:54.244Z,7.77
2018-01-15T23:29:26.336Z,6.90
2018-01-15T23:31:53.639Z,5.00
2018-01-15T23:34:21.262Z,6.57
2018-01-15T23:36:49.713Z,6.20
2018-01-15T23:39:17.539Z,5.80
2018-01-15T23:41:45.169Z,7.07
2018-01-15T23:44:13.647Z,3.70
2018-01-15T23:46:41.330Z,6.13
2018-01-15T23:49:08.955Z,5.60
2018-01-15T23:51:36.583Z,7.07
2018-01-15T23:54:04.276Z,10.57
2018-01-15T23:56:31.894Z,6.90
2018-01-15T23:58:59.515Z,12.60
